Terminal Aerodrome Forecast
Issued by NWS Dodge City, KS

Home | Current Version | Previous Version | Graphics & Text | Print | Product List | Glossary Off
Versions: 1 2 3 4 5 6 7 8 9 10 11 12 13 14 15 16 17 18 19 20 21 22 23 24 25 26 27 28 29 30 31 32

000
FTUS43 KDDC 031137
TAFDDC
TAF
KDDC 031137Z 0312/0412 20018G26KT P6SM SCT018 BKN200
     FM031400 23012G20KT P6SM BKN200
     FM031600 34014G24KT P6SM SCT015 SCT100
     FM040800 03018G25KT P6SM OVC025
     FM041100 03019G26KT 4SM -SN OVC015=

USA.gov is the U.S. government's official web portal to all federal, state and local government web resources and services.